createdAt,value
2019-06-10T00:00:36.185Z,2.90
2019-06-10T00:03:04.469Z,3.33
2019-06-10T00:05:31.098Z,3.12
2019-06-10T00:07:58.007Z,3.08
2019-06-10T00:10:24.017Z,3.10
2019-06-10T00:12:51.743Z,2.80
2019-06-10T00:15:18.318Z,3.25
2019-06-10T00:17:53.393Z,2.50
2019-06-10T00:20:12.011Z,3.27
2019-06-10T00:22:37.935Z,2.92
2019-06-10T00:25:06.672Z,2.85
2019-06-10T00:27:33.664Z,3.00
2019-06-10T00:30:02.598Z,3.17
2019-06-10T00:32:27.554Z,3.25
2019-06-10T00:34:53.978Z,2.65
2019-06-10T00:37:21.150Z,3.33
2019-06-10T00:39:47.662Z,3.42
2019-06-10T00:42:15.084Z,3.27
2019-06-10T00:44:41.667Z,2.60
2019-06-10T00:47:09.279Z,2.72
2019-06-10T00:49:36.250Z,3.50
2019-06-10T00:52:04.187Z,2.80
2019-06-10T00:54:31.174Z,2.87
2019-06-10T00:56:57.805Z,3.35
2019-06-10T00:59:23.684Z,2.70
2019-06-10T01:01:50.883Z,3.25
2019-06-10T01:04:17.306Z,3.20
2019-06-10T01:06:43.239Z,3.00
2019-06-10T01:09:11.454Z,2.77
2019-06-10T01:11:36.854Z,2.95
2019-06-10T01:14:03.099Z,2.80
2019-06-10T01:16:31.636Z,2.90
2019-06-10T01:18:57.549Z,2.92
2019-06-10T01:21:23.425Z,2.90
2019-06-10T01:23:51.008Z,3.20
2019-06-10T01:26:18.345Z,3.12
2019-06-10T01:28:44.522Z,3.33
2019-06-10T01:31:15.886Z,3.00
2019-06-10T01:33:38.430Z,2.90
2019-06-10T01:36:05.475Z,3.40
2019-06-10T01:38:31.777Z,3.05
2019-06-10T01:40:57.918Z,2.80
2019-06-10T01:43:24.020Z,3.00
2019-06-10T01:45:51.106Z,3.27
2019-06-10T01:48:17.946Z,3.70
2019-06-10T01:50:44.684Z,3.40
2019-06-10T01:53:13.811Z,3.60
2019-06-10T01:55:38.706Z,3.75
2019-06-10T01:58:04.751Z,3.67
2019-06-10T02:00:38.422Z,3.33
2019-06-10T02:03:04.834Z,3.65
2019-06-10T02:05:31.219Z,3.60
2019-06-10T02:07:57.112Z,3.20
2019-06-10T02:10:23.168Z,3.37
2019-06-10T02:12:50.873Z,3.42
2019-06-10T02:15:18.377Z,3.10
2019-06-10T02:17:45.515Z,3.20
2019-06-10T02:20:14.822Z,3.27
2019-06-10T02:22:41.169Z,3.83
2019-06-10T02:25:06.962Z,3.60
2019-06-10T02:27:33.542Z,3.95
2019-06-10T02:30:03.934Z,3.85
2019-06-10T02:32:33.016Z,3.87
2019-06-10T02:35:07.807Z,3.83
2019-06-10T02:37:31.903Z,3.35
2019-06-10T02:39:54.194Z,3.20
2019-06-10T02:42:29.445Z,3.30
2019-06-10T02:44:49.338Z,3.80
2019-06-10T02:47:19.089Z,3.58
2019-06-10T02:49:56.952Z,3.35
2019-06-10T02:52:19.714Z,3.33
2019-06-10T02:54:45.391Z,4.00
2019-06-10T02:57:14.581Z,3.95
2019-06-10T02:59:39.500Z,4.20
2019-06-10T03:02:05.365Z,5.03
2019-06-10T03:04:33.973Z,3.65
2019-06-10T03:06:59.441Z,3.77
2019-06-10T03:09:29.382Z,4.55
2019-06-10T03:11:53.604Z,3.83
2019-06-10T03:14:19.711Z,4.03
2019-06-10T03:16:49.269Z,4.83
2019-06-10T03:19:15.859Z,3.98
2019-06-10T03:21:42.986Z,4.42
2019-06-10T03:24:08.971Z,4.90
2019-06-10T03:26:35.224Z,4.80
2019-06-10T03:29:02.689Z,4.37
2019-06-10T03:31:37.192Z,4.37
2019-06-10T03:33:57.115Z,3.92
2019-06-10T03:36:24.611Z,4.80
2019-06-10T03:38:53.496Z,4.47
2019-06-10T03:41:18.623Z,4.65
2019-06-10T03:43:44.545Z,4.78
2019-06-10T03:46:13.349Z,4.45
2019-06-10T03:48:39.001Z,4.67
2019-06-10T03:51:05.635Z,4.75
2019-06-10T03:53:33.760Z,4.90
2019-06-10T03:56:02.078Z,4.58
2019-06-10T03:58:29.268Z,5.25
2019-06-10T04:00:55.366Z,4.70
2019-06-10T04:03:24.277Z,4.28
2019-06-10T04:05:49.455Z,4.25
2019-06-10T04:08:15.709Z,4.20
2019-06-10T04:10:43.014Z,4.37
2019-06-10T04:13:09.130Z,4.55
2019-06-10T04:15:35.098Z,5.47
2019-06-10T04:18:03.666Z,4.53
2019-06-10T04:20:29.603Z,4.90
2019-06-10T04:22:55.603Z,4.30
2019-06-10T04:25:24.693Z,4.58
2019-06-10T04:27:49.226Z,4.33
2019-06-10T04:30:18.146Z,4.90
2019-06-10T04:32:44.480Z,4.55
2019-06-10T04:35:12.533Z,4.60
2019-06-10T04:37:38.087Z,4.20
2019-06-10T04:40:07.428Z,4.40
2019-06-10T04:42:33.523Z,4.58
2019-06-10T04:44:59.604Z,4.78
2019-06-10T04:47:26.770Z,4.15
2019-06-10T04:49:53.461Z,4.28
2019-06-10T04:52:19.330Z,4.40
2019-06-10T04:54:45.793Z,4.67
2019-06-10T04:57:12.764Z,4.85
2019-06-10T04:59:39.057Z,4.60
2019-06-10T05:02:06.649Z,4.42
2019-06-10T05:04:33.118Z,4.08
2019-06-10T05:07:01.973Z,3.90
2019-06-10T05:09:29.425Z,4.78
2019-06-10T05:11:56.067Z,4.53
2019-06-10T05:14:23.982Z,5.10
2019-06-10T05:16:49.675Z,4.58
2019-06-10T05:19:16.275Z,4.75
2019-06-10T05:21:42.644Z,4.90
2019-06-10T05:24:08.907Z,4.62
2019-06-10T05:26:35.445Z,4.42
2019-06-10T05:29:03.067Z,4.17
2019-06-10T05:31:31.022Z,4.22
2019-06-10T05:33:57.909Z,3.77
2019-06-10T05:36:27.089Z,4.00
2019-06-10T05:38:52.583Z,4.28
2019-06-10T05:41:18.870Z,4.37
2019-06-10T05:43:44.706Z,4.00
2019-06-10T05:46:13.133Z,4.40
2019-06-10T05:48:38.351Z,4.12
2019-06-10T05:51:06.924Z,4.20
2019-06-10T05:53:35.017Z,5.05
2019-06-10T05:56:02.034Z,3.87
2019-06-10T05:58:27.849Z,3.87
2019-06-10T06:00:54.097Z,4.80
2019-06-10T06:03:22.576Z,4.90
2019-06-10T06:05:48.124Z,4.10
2019-06-10T06:08:13.954Z,4.35
2019-06-10T06:10:42.168Z,4.55
2019-06-10T06:13:07.554Z,4.05
2019-06-10T06:15:35.812Z,4.40
2019-06-10T06:18:09.934Z,3.95
2019-06-10T06:20:29.501Z,3.83
2019-06-10T06:22:55.479Z,4.12
2019-06-10T06:25:24.032Z,3.80
2019-06-10T06:27:49.658Z,4.10
2019-06-10T06:30:18.691Z,3.40
2019-06-10T06:32:43.795Z,3.67
2019-06-10T06:35:12.514Z,4.15
2019-06-10T06:37:39.687Z,3.83
2019-06-10T06:40:06.347Z,4.03
2019-06-10T06:42:35.046Z,4.03
2019-06-10T06:45:02.833Z,4.20
2019-06-10T06:47:28.229Z,3.67
2019-06-10T06:49:55.047Z,4.25
2019-06-10T06:52:38.899Z,3.80
2019-06-10T06:54:49.470Z,3.90
2019-06-10T06:57:15.414Z,4.30
2019-06-10T06:59:43.258Z,4.00
2019-06-10T07:02:12.174Z,3.70
2019-06-10T07:04:38.759Z,3.77
2019-06-10T07:07:05.009Z,4.15
2019-06-10T07:09:34.364Z,4.67
2019-06-10T07:12:02.577Z,3.70
2019-06-10T07:14:28.575Z,3.85
2019-06-10T07:16:54.770Z,3.58
2019-06-10T07:19:22.639Z,4.08
2019-06-10T07:22:05.329Z,4.47
2019-06-10T07:24:17.771Z,5.05
2019-06-10T07:26:51.137Z,4.72
2019-06-10T07:29:13.182Z,4.92
2019-06-10T07:31:41.785Z,4.80
2019-06-10T07:34:07.525Z,4.22
2019-06-10T07:36:34.441Z,4.75
2019-06-10T07:39:03.508Z,4.92
2019-06-10T07:41:28.773Z,4.37
2019-06-10T07:43:54.918Z,4.72
2019-06-10T07:46:23.023Z,5.00
2019-06-10T07:48:52.740Z,4.55
2019-06-10T07:51:16.974Z,4.47
2019-06-10T07:53:46.546Z,4.50
2019-06-10T07:56:12.902Z,4.85
2019-06-10T07:58:40.130Z,5.17
2019-06-10T08:01:06.316Z,5.92
2019-06-10T08:03:34.355Z,6.10
2019-06-10T08:06:03.056Z,5.28
2019-06-10T08:08:28.146Z,5.70
2019-06-10T08:10:54.076Z,6.00
2019-06-10T08:13:19.952Z,6.80
2019-06-10T08:15:46.189Z,7.00
2019-06-10T08:18:13.140Z,7.47
2019-06-10T08:20:45.371Z,7.67
2019-06-10T08:23:12.910Z,7.60
2019-06-10T08:25:38.836Z,7.72
2019-06-10T08:28:04.761Z,7.15
2019-06-10T08:30:32.928Z,6.42
2019-06-10T08:32:59.403Z,6.47
2019-06-10T08:35:38.361Z,8.73
2019-06-10T08:37:53.095Z,8.03
2019-06-10T08:40:19.281Z,7.87
2019-06-10T08:42:47.448Z,6.72
2019-06-10T08:45:12.896Z,7.45
2019-06-10T08:47:39.220Z,7.08
2019-06-10T08:50:05.862Z,5.97
2019-06-10T08:52:48.874Z,7.58
2019-06-10T08:54:59.868Z,6.85
2019-06-10T08:57:25.838Z,5.25
2019-06-10T08:59:53.306Z,5.53
2019-06-10T09:02:19.468Z,4.70
2019-06-10T09:04:48.751Z,4.60
2019-06-10T09:07:13.740Z,4.65
2019-06-10T09:09:40.517Z,4.30
2019-06-10T09:12:07.504Z,4.30
2019-06-10T09:14:33.492Z,3.77
2019-06-10T09:16:59.698Z,4.25
2019-06-10T09:19:25.906Z,4.03
2019-06-10T09:21:55.858Z,3.95
2019-06-10T09:24:22.153Z,3.55
2019-06-10T09:26:50.142Z,3.20
2019-06-10T09:29:15.609Z,3.65
2019-06-10T09:31:46.782Z,3.80
2019-06-10T09:34:12.563Z,2.87
2019-06-10T09:36:38.042Z,3.12
2019-06-10T09:39:04.563Z,3.47
2019-06-10T09:41:39.947Z,3.75
2019-06-10T09:43:58.397Z,3.08
2019-06-10T09:46:24.776Z,3.15
2019-06-10T09:48:55.659Z,3.50
2019-06-10T09:51:18.561Z,3.33
2019-06-10T09:53:54.554Z,3.08
2019-06-10T09:56:12.652Z,3.30
2019-06-10T09:58:38.946Z,3.02
2019-06-10T10:01:04.909Z,3.75
2019-06-10T10:03:32.891Z,3.17
2019-06-10T10:06:09.805Z,3.92
2019-06-10T10:08:26.866Z,3.50
2019-06-10T10:10:58.430Z,3.85
2019-06-10T10:13:22.507Z,3.22
2019-06-10T10:15:50.470Z,3.35
2019-06-10T10:18:16.518Z,2.95
2019-06-10T10:20:46.162Z,3.02
2019-06-10T10:23:13.655Z,3.25
2019-06-10T10:25:39.971Z,3.45
2019-06-10T10:28:05.905Z,3.33
2019-06-10T10:30:33.233Z,3.12
2019-06-10T10:33:02.501Z,3.10
2019-06-10T10:35:27.550Z,2.90
2019-06-10T10:37:55.683Z,2.98
2019-06-10T10:40:23.413Z,3.33
2019-06-10T10:42:56.731Z,3.85
2019-06-10T10:45:18.034Z,3.10
2019-06-10T10:47:44.966Z,2.83
2019-06-10T10:50:13.840Z,2.83
2019-06-10T10:52:42.430Z,3.83
2019-06-10T10:55:07.758Z,3.87
2019-06-10T10:57:34.052Z,4.45
2019-06-10T11:00:00.021Z,3.87
2019-06-10T11:02:25.962Z,3.87
2019-06-10T11:04:55.151Z,3.87
2019-06-10T11:07:22.345Z,3.55
2019-06-10T11:09:48.566Z,3.70
2019-06-10T11:12:15.495Z,3.25
2019-06-10T11:14:42.461Z,3.58
2019-06-10T11:17:08.406Z,3.33
2019-06-10T11:19:34.637Z,4.08
2019-06-10T11:22:02.783Z,3.70
2019-06-10T11:24:37.666Z,3.47
2019-06-10T11:26:58.271Z,4.33
2019-06-10T11:29:24.560Z,4.10
2019-06-10T11:31:53.669Z,3.62
2019-06-10T11:34:19.873Z,3.27
2019-06-10T11:36:46.232Z,3.72
2019-06-10T11:39:13.383Z,4.10
2019-06-10T11:41:39.711Z,3.42
2019-06-10T11:44:05.634Z,3.62
2019-06-10T11:46:32.603Z,3.33
2019-06-10T11:48:59.129Z,3.60
2019-06-10T11:51:25.084Z,3.40
2019-06-10T11:53:54.518Z,3.60
2019-06-10T11:56:18.767Z,3.47
2019-06-10T11:58:44.929Z,3.30
2019-06-10T12:01:12.932Z,4.20
2019-06-10T12:03:38.561Z,3.77
2019-06-10T12:06:05.715Z,3.52
2019-06-10T12:08:32.862Z,3.58
2019-06-10T12:11:02.191Z,3.50
2019-06-10T12:13:26.902Z,3.60
2019-06-10T12:16:48.283Z,3.12
2019-06-10T12:18:22.727Z,3.47
2019-06-10T12:20:49.657Z,3.25
2019-06-10T12:23:15.655Z,2.90
2019-06-10T12:25:43.630Z,3.35
2019-06-10T12:28:12.745Z,3.12
2019-06-10T12:30:38.795Z,3.10
2019-06-10T12:33:05.578Z,3.22
2019-06-10T12:35:33.334Z,3.65
2019-06-10T12:38:01.298Z,3.40
2019-06-10T12:40:27.337Z,2.80
2019-06-10T12:42:56.750Z,3.08
2019-06-10T12:45:23.325Z,3.10
2019-06-10T12:47:49.022Z,3.05
2019-06-10T12:50:15.176Z,3.52
2019-06-10T12:52:41.257Z,3.50
2019-06-10T12:55:08.190Z,3.08
2019-06-10T12:57:33.977Z,3.17
2019-06-10T13:00:01.206Z,5.40
2019-06-10T13:02:31.392Z,4.58
2019-06-10T13:04:55.805Z,3.85
2019-06-10T13:07:22.644Z,3.30
2019-06-10T13:09:48.622Z,3.42
2019-06-10T13:12:14.459Z,3.37
2019-06-10T13:14:42.877Z,3.47
2019-06-10T13:17:08.532Z,3.20
2019-06-10T13:19:34.540Z,3.72
2019-06-10T13:22:02.073Z,4.25
2019-06-10T13:24:28.803Z,3.62
2019-06-10T13:26:55.225Z,3.58
2019-06-10T13:29:23.960Z,3.50
2019-06-10T13:31:49.323Z,3.40
2019-06-10T13:34:15.277Z,3.45
2019-06-10T13:36:42.260Z,3.70
2019-06-10T13:39:10.369Z,3.40
2019-06-10T13:41:36.029Z,3.40
2019-06-10T13:44:02.216Z,3.80
2019-06-10T13:46:28.328Z,3.42
2019-06-10T13:48:54.828Z,3.30
2019-06-10T13:51:21.056Z,3.40
2019-06-10T13:53:46.942Z,3.50
2019-06-10T13:56:37.676Z,3.50
2019-06-10T13:58:42.434Z,3.62
2019-06-10T14:01:13.867Z,3.47
2019-06-10T14:03:37.541Z,3.10
2019-06-10T14:06:21.025Z,3.30
2019-06-10T14:08:32.650Z,3.52
2019-06-10T14:10:58.856Z,3.67
2019-06-10T14:13:24.718Z,3.22
2019-06-10T14:15:53.431Z,3.37
2019-06-10T14:18:20.096Z,3.75
2019-06-10T14:20:47.147Z,3.92
2019-06-10T14:23:17.394Z,3.87
2019-06-10T14:25:42.784Z,4.10
2019-06-10T14:28:10.899Z,4.15
2019-06-10T14:30:38.109Z,3.90
2019-06-10T14:33:05.739Z,3.58
2019-06-10T14:35:33.131Z,4.10
2019-06-10T14:37:59.178Z,5.33
2019-06-10T14:40:25.471Z,4.28
2019-06-10T14:42:52.490Z,5.22
2019-06-10T14:45:18.628Z,5.00
2019-06-10T14:47:44.478Z,3.80
2019-06-10T14:50:13.838Z,3.37
2019-06-10T14:52:42.845Z,4.00
2019-06-10T14:55:09.413Z,4.33
2019-06-10T14:57:36.020Z,3.80
2019-06-10T15:00:03.008Z,3.85
2019-06-10T15:02:29.390Z,4.10
2019-06-10T15:04:55.342Z,3.72
2019-06-10T15:07:23.689Z,3.22
2019-06-10T15:09:49.104Z,3.85
2019-06-10T15:12:17.345Z,3.40
2019-06-10T15:14:43.068Z,2.72
2019-06-10T15:17:10.486Z,3.10
2019-06-10T15:19:36.910Z,3.15
2019-06-10T15:22:03.128Z,2.90
2019-06-10T15:24:29.859Z,3.05
2019-06-10T15:27:08.872Z,3.15
2019-06-10T15:29:23.688Z,2.92
2019-06-10T15:32:05.953Z,2.83
2019-06-10T15:34:19.691Z,2.65
2019-06-10T15:36:45.902Z,3.47
2019-06-10T15:39:16.454Z,3.00
2019-06-10T15:41:39.981Z,3.17
2019-06-10T15:44:05.913Z,3.15
2019-06-10T15:46:32.350Z,2.70
2019-06-10T15:48:58.332Z,3.02
2019-06-10T15:51:26.157Z,3.08
2019-06-10T15:53:51.953Z,3.20
2019-06-10T15:56:31.982Z,3.40
2019-06-10T15:58:46.231Z,3.70
2019-06-10T16:01:16.393Z,3.42
2019-06-10T16:03:42.218Z,2.83
2019-06-10T16:06:08.040Z,2.90
2019-06-10T16:08:34.170Z,3.22
2019-06-10T16:11:00.123Z,2.67
2019-06-10T16:13:26.079Z,3.10
2019-06-10T16:15:53.204Z,3.00
2019-06-10T16:18:21.220Z,3.27
2019-06-10T16:20:47.056Z,3.55
2019-06-10T16:23:13.842Z,3.22
2019-06-10T16:25:42.483Z,3.10
2019-06-10T16:28:07.798Z,3.00
2019-06-10T16:30:34.083Z,3.17
2019-06-10T16:33:02.748Z,3.05
2019-06-10T16:35:28.358Z,2.95
2019-06-10T16:37:56.866Z,3.20
2019-06-10T16:40:24.262Z,2.77
2019-06-10T16:42:50.481Z,3.40
2019-06-10T16:45:19.829Z,3.67
2019-06-10T16:47:44.436Z,3.33
2019-06-10T16:50:12.201Z,3.45
2019-06-10T16:52:38.718Z,2.83
2019-06-10T16:55:05.166Z,2.80
2019-06-10T16:57:33.420Z,2.60
2019-06-10T16:59:59.244Z,2.80
2019-06-10T17:02:26.413Z,2.58
2019-06-10T17:04:52.878Z,3.00
2019-06-10T17:07:18.705Z,3.05
2019-06-10T17:09:44.530Z,3.25
2019-06-10T17:12:12.471Z,2.90
2019-06-10T17:14:38.383Z,3.00
2019-06-10T17:17:04.347Z,3.30
2019-06-10T17:19:33.172Z,3.27
2019-06-10T17:21:58.629Z,3.67
2019-06-10T17:24:27.173Z,2.95
2019-06-10T17:26:53.200Z,3.47
2019-06-10T17:29:19.646Z,2.95
2019-06-10T17:31:46.093Z,3.67
2019-06-10T17:34:13.130Z,3.62
2019-06-10T17:36:39.442Z,3.35
2019-06-10T17:39:06.559Z,3.52
2019-06-10T17:41:35.187Z,3.92
2019-06-10T17:44:02.500Z,3.92
2019-06-10T17:46:29.505Z,4.03
2019-06-10T17:48:56.063Z,3.40
2019-06-10T17:51:23.091Z,3.70
2019-06-10T17:53:50.343Z,3.55
2019-06-10T17:56:17.011Z,3.40
2019-06-10T17:58:52.595Z,3.45
2019-06-10T18:01:12.922Z,3.40
2019-06-10T18:03:39.981Z,3.15
2019-06-10T18:06:06.121Z,3.37
2019-06-10T18:08:34.904Z,3.15
2019-06-10T18:10:59.864Z,3.25
2019-06-10T18:13:26.266Z,3.30
2019-06-10T18:15:53.413Z,3.72
2019-06-10T18:18:20.019Z,3.35
2019-06-10T18:20:46.056Z,3.67
2019-06-10T18:23:13.415Z,3.37
2019-06-10T18:25:40.338Z,3.50
2019-06-10T18:28:06.285Z,3.30
2019-06-10T18:30:35.830Z,3.50
2019-06-10T18:33:02.933Z,3.33
2019-06-10T18:35:29.907Z,3.58
2019-06-10T18:37:56.127Z,3.70
2019-06-10T18:40:22.414Z,3.65
2019-06-10T18:42:48.238Z,3.17
2019-06-10T18:45:14.551Z,2.58
2019-06-10T18:47:42.297Z,2.20
2019-06-10T18:50:09.238Z,2.22
2019-06-10T18:52:37.144Z,2.62
2019-06-10T18:55:04.905Z,2.40
2019-06-10T18:57:33.169Z,3.05
2019-06-10T18:59:59.687Z,2.83
2019-06-10T19:02:25.653Z,3.60
2019-06-10T19:04:54.422Z,3.72
2019-06-10T19:07:19.653Z,4.28
2019-06-10T19:09:48.015Z,3.98
2019-06-10T19:12:13.562Z,3.70
2019-06-10T19:14:39.876Z,3.80
2019-06-10T19:17:05.994Z,3.50
2019-06-10T19:19:32.146Z,3.60
2019-06-10T19:22:05.452Z,4.03
2019-06-10T19:24:25.815Z,2.85
2019-06-10T19:26:52.710Z,2.65
2019-06-10T19:29:30.788Z,2.77
2019-06-10T19:31:46.841Z,2.80
2019-06-10T19:34:13.309Z,2.77
2019-06-10T19:36:39.762Z,2.77
2019-06-10T19:39:05.735Z,3.50
2019-06-10T19:41:35.779Z,2.83
2019-06-10T19:43:59.544Z,2.72
2019-06-10T19:46:25.364Z,2.42
2019-06-10T19:48:59.503Z,2.45
2019-06-10T19:51:20.088Z,2.67
2019-06-10T19:53:46.722Z,2.25
2019-06-10T19:56:13.035Z,2.52
2019-06-10T19:58:40.884Z,2.40
2019-06-10T20:01:07.393Z,2.40
2019-06-10T20:03:34.359Z,2.40
2019-06-10T20:06:03.103Z,2.70
2019-06-10T20:08:29.343Z,2.47
2019-06-10T20:10:55.257Z,2.45
2019-06-10T20:13:23.034Z,2.50
2019-06-10T20:15:49.133Z,2.70
2019-06-10T20:18:15.569Z,2.35
2019-06-10T20:20:45.645Z,2.10
2019-06-10T20:23:09.746Z,2.30
2019-06-10T20:25:36.288Z,2.08
2019-06-10T20:28:03.021Z,2.40
2019-06-10T20:30:29.368Z,2.50
2019-06-10T20:32:56.487Z,1.98
2019-06-10T20:35:23.410Z,2.67
2019-06-10T20:37:53.646Z,2.30
2019-06-10T20:40:19.034Z,2.30
2019-06-10T20:42:45.018Z,2.77
2019-06-10T20:45:13.139Z,3.15
2019-06-10T20:47:39.564Z,2.70
2019-06-10T20:50:05.904Z,3.17
2019-06-10T20:52:32.590Z,3.10
2019-06-10T20:54:58.917Z,3.15
2019-06-10T20:57:24.864Z,3.22
2019-06-10T20:59:50.826Z,3.35
2019-06-10T21:02:16.813Z,3.40
2019-06-10T21:04:45.195Z,3.47
2019-06-10T21:07:13.088Z,3.15
2019-06-10T21:09:42.011Z,3.30
2019-06-10T21:12:08.865Z,3.12
2019-06-10T21:14:34.746Z,3.10
2019-06-10T21:17:02.865Z,3.55
2019-06-10T21:19:29.843Z,3.40
2019-06-10T21:21:56.390Z,3.20
2019-06-10T21:24:23.159Z,2.90
2019-06-10T21:26:49.905Z,3.00
2019-06-10T21:29:17.541Z,3.67
2019-06-10T21:31:45.304Z,3.52
2019-06-10T21:34:12.576Z,3.75
2019-06-10T21:36:38.852Z,3.60
2019-06-10T21:39:06.549Z,3.10
2019-06-10T21:41:32.687Z,3.45
2019-06-10T21:43:59.574Z,3.67
2019-06-10T21:46:25.659Z,3.42
2019-06-10T21:48:53.192Z,3.77
2019-06-10T21:51:22.598Z,3.22
2019-06-10T21:53:48.593Z,3.33
2019-06-10T21:56:14.759Z,3.35
2019-06-10T21:58:42.356Z,3.22
2019-06-10T22:01:13.240Z,3.12
2019-06-10T22:03:37.867Z,3.27
2019-06-10T22:06:03.814Z,3.05
2019-06-10T22:08:29.963Z,3.42
2019-06-10T22:10:56.697Z,2.92
2019-06-10T22:13:23.034Z,3.22
2019-06-10T22:15:50.375Z,3.30
2019-06-10T22:18:16.954Z,3.30
2019-06-10T22:20:44.826Z,3.00
2019-06-10T22:23:12.817Z,3.42
2019-06-10T22:25:39.229Z,3.85
2019-06-10T22:28:05.467Z,3.12
2019-06-10T22:30:32.075Z,3.00
2019-06-10T22:32:58.213Z,3.20
2019-06-10T22:35:24.133Z,2.90
2019-06-10T22:37:52.195Z,3.70
2019-06-10T22:40:18.373Z,2.98
2019-06-10T22:42:44.652Z,3.45
2019-06-10T22:45:13.130Z,3.25
2019-06-10T22:47:38.881Z,2.92
2019-06-10T22:50:07.418Z,2.90
2019-06-10T22:52:33.284Z,3.00
2019-06-10T22:55:01.086Z,3.20
2019-06-10T22:57:27.369Z,3.15
2019-06-10T22:59:56.283Z,3.20
2019-06-10T23:02:22.936Z,3.17
2019-06-10T23:04:49.601Z,3.10
2019-06-10T23:07:16.700Z,3.10
2019-06-10T23:09:42.958Z,2.90
2019-06-10T23:12:08.834Z,3.30
2019-06-10T23:14:35.041Z,2.92
2019-06-10T23:17:03.024Z,3.52
2019-06-10T23:19:28.815Z,2.83
2019-06-10T23:21:56.851Z,3.08
2019-06-10T23:24:22.876Z,3.05
2019-06-10T23:26:49.712Z,3.30
2019-06-10T23:29:15.881Z,3.42
2019-06-10T23:31:52.227Z,3.15
2019-06-10T23:34:11.666Z,3.40
2019-06-10T23:36:37.530Z,3.42
2019-06-10T23:39:04.455Z,3.42
2019-06-10T23:41:32.751Z,3.72
2019-06-10T23:43:59.179Z,3.85
2019-06-10T23:46:25.145Z,4.10
2019-06-10T23:48:51.846Z,4.10
2019-06-10T23:51:17.718Z,4.55
2019-06-10T23:53:43.540Z,4.10
2019-06-10T23:56:09.455Z,3.77
2019-06-10T23:58:35.341Z,4.08
